createdAt,value
2018-07-13T00:00:20.422Z,5.40
2018-07-13T00:02:47.985Z,5.30
2018-07-13T00:05:15.678Z,6.07
2018-07-13T00:07:44.143Z,5.77
2018-07-13T00:10:11.777Z,5.80
2018-07-13T00:12:40.797Z,6.10
2018-07-13T00:15:09.654Z,6.47
2018-07-13T00:17:37.344Z,6.30
2018-07-13T00:20:05.472Z,6.10
2018-07-13T00:22:33.151Z,5.97
2018-07-13T00:25:00.845Z,6.70
2018-07-13T00:27:28.497Z,6.90
2018-07-13T00:29:56.680Z,6.20
2018-07-13T00:32:24.243Z,6.33
2018-07-13T00:34:51.850Z,6.10
2018-07-13T00:37:19.876Z,6.33
2018-07-13T00:39:57.487Z,7.07
2018-07-13T00:42:28.106Z,7.40
2018-07-13T00:44:55.712Z,6.93
2018-07-13T00:47:23.289Z,7.37
2018-07-13T00:49:50.936Z,6.47
2018-07-13T00:52:18.693Z,6.70
2018-07-13T00:54:48.365Z,7.33
2018-07-13T00:57:15.941Z,7.17
2018-07-13T00:59:44.106Z,7.43
2018-07-13T01:02:11.737Z,7.47
2018-07-13T01:04:39.354Z,7.00
2018-07-13T01:07:07.267Z,7.07
2018-07-13T01:09:35.054Z,7.30
2018-07-13T01:12:02.798Z,7.67
2018-07-13T01:14:31.177Z,7.50
2018-07-13T01:16:58.917Z,6.17
2018-07-13T01:19:26.521Z,6.57
2018-07-13T01:21:54.120Z,6.00
2018-07-13T01:24:21.688Z,6.07
2018-07-13T01:26:50.587Z,5.80
2018-07-13T01:29:18.187Z,5.40
2018-07-13T01:31:45.818Z,5.00
2018-07-13T01:34:14.171Z,5.53
2018-07-13T01:36:42.061Z,5.07
2018-07-13T01:39:12.070Z,4.87
2018-07-13T01:41:39.958Z,5.10
2018-07-13T01:44:07.554Z,4.83
2018-07-13T01:46:35.158Z,5.10
2018-07-13T01:49:02.801Z,5.37
2018-07-13T01:51:33.194Z,5.20
2018-07-13T01:54:00.802Z,5.20
2018-07-13T01:56:28.726Z,5.40
2018-07-13T01:58:56.274Z,5.50
2018-07-13T02:01:23.856Z,5.10
2018-07-13T02:03:51.449Z,5.80
2018-07-13T02:06:19.030Z,5.63
2018-07-13T02:08:46.805Z,5.23
2018-07-13T02:11:14.385Z,5.50
2018-07-13T02:13:42.218Z,5.80
2018-07-13T02:16:10.110Z,5.40
2018-07-13T02:18:37.796Z,5.53
2018-07-13T02:21:05.617Z,5.27
2018-07-13T02:23:33.197Z,5.33
2018-07-13T02:26:00.777Z,4.90
2018-07-13T02:28:28.387Z,5.60
2018-07-13T02:30:55.987Z,5.53
2018-07-13T02:33:23.573Z,5.70
2018-07-13T02:35:51.185Z,5.50
2018-07-13T02:38:18.781Z,5.90
2018-07-13T02:40:46.345Z,6.13
2018-07-13T02:43:13.981Z,5.90
2018-07-13T02:45:42.074Z,6.40
2018-07-13T02:48:09.766Z,6.63
2018-07-13T02:50:37.753Z,6.67
2018-07-13T02:53:05.400Z,6.60
2018-07-13T02:55:32.974Z,6.80
2018-07-13T02:58:01.021Z,6.43
2018-07-13T03:00:28.643Z,6.50
2018-07-13T03:02:56.229Z,7.17
2018-07-13T03:05:23.837Z,7.70
2018-07-13T03:07:51.470Z,7.23
2018-07-13T03:10:19.164Z,7.70
2018-07-13T03:12:46.802Z,7.83
2018-07-13T03:15:14.358Z,7.00
2018-07-13T03:17:41.974Z,7.30
2018-07-13T03:20:09.566Z,7.40
2018-07-13T03:22:37.163Z,7.30
2018-07-13T03:25:04.948Z,7.27
2018-07-13T03:27:32.572Z,7.23
2018-07-13T03:30:00.172Z,7.60
2018-07-13T03:32:27.783Z,7.23
2018-07-13T03:34:55.349Z,7.57
2018-07-13T03:37:22.966Z,7.50
2018-07-13T03:39:50.558Z,7.33
2018-07-13T03:42:18.421Z,7.43
2018-07-13T03:44:46.018Z,7.60
2018-07-13T03:47:13.614Z,8.47
2018-07-13T03:49:41.214Z,7.80
2018-07-13T03:52:11.177Z,7.50
2018-07-13T03:54:38.774Z,7.70
2018-07-13T03:57:06.438Z,7.30
2018-07-13T03:59:34.017Z,8.20
2018-07-13T04:02:01.613Z,8.10
2018-07-13T04:04:29.299Z,7.80
2018-07-13T04:06:56.888Z,7.83
2018-07-13T04:09:24.612Z,7.30
2018-07-13T04:11:52.206Z,7.20
2018-07-13T04:14:19.959Z,7.47
2018-07-13T04:16:47.538Z,7.47
2018-07-13T04:19:15.157Z,7.30
2018-07-13T04:21:43.344Z,7.63
2018-07-13T04:24:11.043Z,7.30
2018-07-13T04:26:39.557Z,7.40
2018-07-13T04:29:07.261Z,7.03
2018-07-13T04:31:34.862Z,7.37
2018-07-13T04:34:02.627Z,7.27
2018-07-13T04:36:30.289Z,7.23
2018-07-13T04:38:57.869Z,7.50
2018-07-13T04:41:25.633Z,8.83
2018-07-13T04:43:53.263Z,8.00
2018-07-13T04:46:20.953Z,7.27
2018-07-13T04:48:48.642Z,7.23
2018-07-13T04:51:16.293Z,6.80
2018-07-13T04:53:44.295Z,6.43
2018-07-13T04:56:12.005Z,7.10
2018-07-13T04:58:39.749Z,7.43
2018-07-13T05:01:07.463Z,7.63
2018-07-13T05:03:35.179Z,7.93
2018-07-13T05:06:02.833Z,7.80
2018-07-13T05:08:30.608Z,7.47
2018-07-13T05:10:58.221Z,9.17
2018-07-13T05:13:25.857Z,7.67
2018-07-13T05:15:53.565Z,7.97
2018-07-13T05:18:21.206Z,8.10
2018-07-13T05:20:48.892Z,8.40
2018-07-13T05:23:16.581Z,8.07
2018-07-13T05:25:44.496Z,7.63
2018-07-13T05:28:12.299Z,7.93
2018-07-13T05:30:39.984Z,8.13
2018-07-13T05:33:07.710Z,7.87
2018-07-13T05:35:35.357Z,7.13
2018-07-13T05:38:04.869Z,7.47
2018-07-13T05:40:32.581Z,7.77
2018-07-13T05:43:00.252Z,7.43
2018-07-13T05:45:27.925Z,8.07
2018-07-13T05:47:55.579Z,8.33
2018-07-13T05:50:23.286Z,20.33
2018-07-13T05:52:51.154Z,48.60
2018-07-13T05:55:18.916Z,11.53
2018-07-13T05:57:47.909Z,9.70
2018-07-13T06:00:17.453Z,9.20
2018-07-13T06:02:46.643Z,9.60
2018-07-13T06:05:15.451Z,9.03
2018-07-13T06:07:43.530Z,9.30
2018-07-13T06:10:11.334Z,15.10
2018-07-13T06:12:38.988Z,39.70
2018-07-13T06:15:06.797Z,10.43
2018-07-13T06:17:34.996Z,9.23
2018-07-13T06:20:02.625Z,9.70
2018-07-13T06:22:30.210Z,8.80
2018-07-13T06:24:57.876Z,10.47
2018-07-13T06:27:25.440Z,10.00
2018-07-13T06:29:53.117Z,9.70
2018-07-13T06:32:20.953Z,10.60
2018-07-13T06:34:49.784Z,11.70
2018-07-13T06:37:17.391Z,11.23
2018-07-13T06:39:45.161Z,11.43
2018-07-13T06:42:12.815Z,10.47
2018-07-13T06:44:40.466Z,11.10
2018-07-13T06:47:08.052Z,11.40
2018-07-13T06:49:35.685Z,11.00
2018-07-13T06:52:03.375Z,11.87
2018-07-13T06:54:31.002Z,11.87
2018-07-13T06:56:58.605Z,11.77
2018-07-13T06:59:26.257Z,16.20
2018-07-13T07:01:54.038Z,12.13
2018-07-13T07:04:27.881Z,12.27
2018-07-13T07:06:55.993Z,11.83
2018-07-13T07:09:24.290Z,12.30
2018-07-13T07:12:37.745Z,27.50
2018-07-13T07:15:05.531Z,13.57
2018-07-13T07:17:33.131Z,12.80
2018-07-13T07:20:00.782Z,12.67
2018-07-13T07:22:28.370Z,12.70
2018-07-13T07:24:55.969Z,12.13
2018-07-13T07:27:23.685Z,11.97
2018-07-13T07:29:51.326Z,11.70
2018-07-13T07:32:18.989Z,12.07
2018-07-13T07:34:46.652Z,12.40
2018-07-13T07:37:14.307Z,12.70
2018-07-13T07:39:41.897Z,12.40
2018-07-13T07:42:09.917Z,14.70
2018-07-13T07:44:37.991Z,13.00
2018-07-13T07:47:05.610Z,12.40
2018-07-13T07:49:33.202Z,10.47
2018-07-13T07:52:01.518Z,12.27
2018-07-13T07:54:29.146Z,12.33
2018-07-13T07:56:56.896Z,12.27
2018-07-13T07:59:24.507Z,12.07
2018-07-13T08:01:52.711Z,11.77
2018-07-13T08:04:20.293Z,12.57
2018-07-13T08:06:48.231Z,11.40
2018-07-13T08:09:15.620Z,12.10
2018-07-13T08:11:43.657Z,11.87
2018-07-13T08:14:11.509Z,11.57
2018-07-13T08:16:38.994Z,9.77
2018-07-13T08:19:06.617Z,11.33
2018-07-13T08:21:39.430Z,11.90
2018-07-13T08:24:08.008Z,11.63
2018-07-13T08:26:36.247Z,11.13
2018-07-13T08:29:03.916Z,12.00
2018-07-13T08:31:31.632Z,11.60
2018-07-13T08:33:59.225Z,10.83
2018-07-13T08:36:26.955Z,10.53
2018-07-13T08:39:11.883Z,9.50
2018-07-13T08:41:39.616Z,10.60
2018-07-13T08:44:08.062Z,10.40
2018-07-13T08:46:35.869Z,11.87
2018-07-13T08:49:03.518Z,10.93
2018-07-13T08:51:31.190Z,9.80
2018-07-13T08:53:58.963Z,11.07
2018-07-13T08:56:26.646Z,10.10
2018-07-13T08:58:54.701Z,11.00
2018-07-13T09:01:22.465Z,10.97
2018-07-13T09:03:50.513Z,10.80
2018-07-13T09:06:18.196Z,10.20
2018-07-13T09:08:45.997Z,10.47
2018-07-13T09:11:13.566Z,11.10
2018-07-13T09:13:41.243Z,10.80
2018-07-13T09:16:08.846Z,12.10
2018-07-13T09:18:36.534Z,10.77
2018-07-13T09:21:04.208Z,11.10
2018-07-13T09:23:31.792Z,10.33
2018-07-13T09:25:59.335Z,11.47
2018-07-13T09:28:26.937Z,12.23
2018-07-13T09:30:54.686Z,10.63
2018-07-13T09:33:22.316Z,10.47
2018-07-13T09:35:50.436Z,11.63
2018-07-13T09:38:18.063Z,11.53
2018-07-13T09:40:46.274Z,11.40
2018-07-13T09:43:14.041Z,10.47
2018-07-13T09:45:41.696Z,10.30
2018-07-13T09:48:09.358Z,9.10
2018-07-13T09:50:38.322Z,9.80
2018-07-13T09:53:06.029Z,9.80
2018-07-13T09:55:33.627Z,9.47
2018-07-13T09:58:01.225Z,7.13
2018-07-13T10:01:31.538Z,8.37
2018-07-13T10:03:59.202Z,7.47
2018-07-13T10:06:26.783Z,10.07
2018-07-13T10:08:54.414Z,8.70
2018-07-13T10:11:21.993Z,9.50
2018-07-13T10:13:49.687Z,8.87
2018-07-13T10:16:17.330Z,8.03
2018-07-13T10:18:45.012Z,8.07
2018-07-13T10:21:12.666Z,8.07
2018-07-13T10:23:40.992Z,8.83
2018-07-13T10:26:11.899Z,8.50
2018-07-13T10:28:39.806Z,7.93
2018-07-13T10:31:08.317Z,7.43
2018-07-13T10:33:37.579Z,7.37
2018-07-13T10:36:06.864Z,6.17
2018-07-13T10:38:34.629Z,7.43
2018-07-13T10:41:02.242Z,7.43
2018-07-13T10:43:29.938Z,6.23
2018-07-13T10:45:57.649Z,5.80
2018-07-13T10:48:25.285Z,5.67
2018-07-13T10:50:52.825Z,6.20
2018-07-13T10:53:20.410Z,5.87
2018-07-13T10:55:48.932Z,5.60
2018-07-13T10:58:16.563Z,5.60
2018-07-13T11:00:44.210Z,5.17
2018-07-13T11:03:11.896Z,4.17
2018-07-13T11:05:39.450Z,4.30
2018-07-13T11:08:07.260Z,6.10
2018-07-13T11:10:34.765Z,5.40
2018-07-13T11:13:02.377Z,6.17
2018-07-13T11:15:29.962Z,5.20
2018-07-13T11:17:57.525Z,5.10
2018-07-13T11:20:25.114Z,4.90
2018-07-13T11:22:52.932Z,5.93
2018-07-13T11:25:20.493Z,6.30
2018-07-13T11:27:48.769Z,6.27
2018-07-13T11:30:16.404Z,5.73
2018-07-13T11:32:44.537Z,5.70
2018-07-13T11:35:12.565Z,7.50
2018-07-13T11:37:40.167Z,5.57
2018-07-13T11:40:08.555Z,5.13
2018-07-13T11:42:36.158Z,5.60
2018-07-13T11:45:03.781Z,5.63
2018-07-13T11:47:31.445Z,5.30
2018-07-13T11:49:59.018Z,5.80
2018-07-13T11:52:26.565Z,5.33
2018-07-13T11:54:54.409Z,7.13
2018-07-13T11:57:22.170Z,12.10
2018-07-13T11:59:49.753Z,4.00
2018-07-13T12:02:17.306Z,4.53
2018-07-13T12:04:44.876Z,4.70
2018-07-13T12:07:12.581Z,4.70
2018-07-13T12:09:40.097Z,5.00
2018-07-13T12:12:07.677Z,4.80
2018-07-13T12:14:35.502Z,4.30
2018-07-13T12:17:03.381Z,4.27
2018-07-13T12:19:30.962Z,3.77
2018-07-13T12:21:58.542Z,4.30
2018-07-13T12:24:26.118Z,4.40
2018-07-13T12:26:53.735Z,3.90
2018-07-13T12:29:21.285Z,3.60
2018-07-13T12:31:48.953Z,3.37
2018-07-13T12:34:16.537Z,3.00
2018-07-13T12:36:44.081Z,3.07
2018-07-13T12:39:11.669Z,6.60
2018-07-13T12:41:39.238Z,3.20
2018-07-13T12:44:06.853Z,2.70
2018-07-13T12:46:34.451Z,2.67
2018-07-13T12:49:02.718Z,2.97
2018-07-13T12:51:30.324Z,3.17
2018-07-13T12:53:58.273Z,3.10
2018-07-13T12:56:25.982Z,3.00
2018-07-13T12:58:55.179Z,3.20
2018-07-13T13:01:22.880Z,2.70
2018-07-13T13:03:50.500Z,2.93
2018-07-13T13:06:18.346Z,2.80
2018-07-13T13:08:46.274Z,2.50
2018-07-13T13:11:13.914Z,2.80
2018-07-13T13:13:41.563Z,3.30
2018-07-13T13:16:09.153Z,3.60
2018-07-13T13:18:36.702Z,2.90
2018-07-13T13:21:04.281Z,3.23
2018-07-13T13:23:31.885Z,2.90
2018-07-13T13:25:59.493Z,3.20
2018-07-13T13:28:27.145Z,2.40
2018-07-13T13:30:54.741Z,2.37
2018-07-13T13:33:22.527Z,2.40
2018-07-13T13:35:50.853Z,2.50
2018-07-13T13:38:18.416Z,2.40
2018-07-13T13:40:46.093Z,2.53
2018-07-13T13:43:14.476Z,2.47
2018-07-13T13:45:42.268Z,2.43
2018-07-13T13:48:10.306Z,2.37
2018-07-13T13:50:38.294Z,2.40
2018-07-13T13:53:05.870Z,2.37
2018-07-13T13:55:33.469Z,2.37
2018-07-13T13:58:01.079Z,2.30
2018-07-13T14:00:28.673Z,2.20
2018-07-13T14:02:56.209Z,2.30
2018-07-13T14:05:23.945Z,2.20
2018-07-13T14:07:51.657Z,2.30
2018-07-13T14:10:19.836Z,2.42
2018-07-13T14:12:48.266Z,2.10
2018-07-13T14:15:15.876Z,2.45
2018-07-13T14:17:43.500Z,2.52
2018-07-13T14:20:11.217Z,2.22
2018-07-13T14:22:38.799Z,2.33
2018-07-13T14:25:13.315Z,2.25
2018-07-13T14:27:40.899Z,1.90
2018-07-13T14:30:08.733Z,2.40
2018-07-13T14:32:36.324Z,2.30
2018-07-13T14:35:03.986Z,2.60
2018-07-13T14:37:31.909Z,2.67
2018-07-13T14:40:01.207Z,2.20
2018-07-13T14:42:29.607Z,2.17
2018-07-13T14:44:57.262Z,2.10
2018-07-13T14:47:25.043Z,1.87
2018-07-13T14:49:52.745Z,1.92
2018-07-13T14:52:20.446Z,2.08
2018-07-13T14:54:48.014Z,2.02
2018-07-13T14:57:15.606Z,2.27
2018-07-13T14:59:43.219Z,2.10
2018-07-13T15:02:10.783Z,2.17
2018-07-13T15:04:38.338Z,2.15
2018-07-13T15:07:05.952Z,2.20
2018-07-13T15:09:33.601Z,2.20
2018-07-13T15:12:01.178Z,2.00
2018-07-13T15:14:28.854Z,2.10
2018-07-13T15:16:56.439Z,2.50
2018-07-13T15:19:24.146Z,2.20
2018-07-13T15:21:51.980Z,2.37
2018-07-13T15:24:19.574Z,2.20
2018-07-13T15:26:47.179Z,2.22
2018-07-13T15:29:15.069Z,1.80
2018-07-13T15:31:42.685Z,14.33
2018-07-13T15:34:10.269Z,2.30
2018-07-13T15:36:37.862Z,2.30
2018-07-13T15:39:06.770Z,2.62
2018-07-13T15:41:34.365Z,1.90
2018-07-13T15:44:01.974Z,2.10
2018-07-13T15:46:29.576Z,2.30
2018-07-13T15:48:57.300Z,2.12
2018-07-13T15:51:24.904Z,1.87
2018-07-13T15:53:52.680Z,2.10
2018-07-13T15:56:20.254Z,2.25
2018-07-13T15:58:47.866Z,1.90
2018-07-13T16:01:15.433Z,2.10
2018-07-13T16:03:43.117Z,2.60
2018-07-13T16:06:10.742Z,8.50
2018-07-13T16:08:38.477Z,32.33
2018-07-13T16:11:06.075Z,7.50
2018-07-13T16:13:33.821Z,4.00
2018-07-13T16:16:01.544Z,2.87
2018-07-13T16:18:29.131Z,2.58
2018-07-13T16:20:56.698Z,2.72
2018-07-13T16:23:24.289Z,2.37
2018-07-13T16:25:52.893Z,2.52
2018-07-13T16:28:21.021Z,2.60
2018-07-13T16:30:48.716Z,2.40
2018-07-13T16:33:16.285Z,2.42
2018-07-13T16:35:43.846Z,2.72
2018-07-13T16:38:11.456Z,2.67
2018-07-13T16:40:39.045Z,2.55
2018-07-13T16:43:06.646Z,2.67
2018-07-13T16:45:34.265Z,2.60
2018-07-13T16:48:01.834Z,2.45
2018-07-13T16:50:29.845Z,2.70
2018-07-13T16:52:57.730Z,2.60
2018-07-13T16:55:25.301Z,2.55
2018-07-13T16:57:52.894Z,2.65
2018-07-13T17:00:20.729Z,2.70
2018-07-13T17:02:48.310Z,2.33
2018-07-13T17:05:16.425Z,2.33
2018-07-13T17:07:44.049Z,2.33
2018-07-13T17:10:11.666Z,2.27
2018-07-13T17:12:39.237Z,2.65
2018-07-13T17:15:07.049Z,2.50
2018-07-13T17:17:34.666Z,4.42
2018-07-13T17:20:02.374Z,2.80
2018-07-13T17:22:30.002Z,2.45
2018-07-13T17:24:57.554Z,2.20
2018-07-13T17:27:25.146Z,2.60
2018-07-13T17:29:52.713Z,2.72
2018-07-13T17:32:20.264Z,2.92
2018-07-13T17:34:48.009Z,2.70
2018-07-13T17:37:16.562Z,3.10
2018-07-13T17:39:44.305Z,2.70
2018-07-13T17:42:11.861Z,2.80
2018-07-13T17:44:39.526Z,3.17
2018-07-13T17:47:07.153Z,2.60
2018-07-13T17:49:34.805Z,2.60
2018-07-13T17:52:02.370Z,2.90
2018-07-13T17:54:30.109Z,2.93
2018-07-13T17:56:57.714Z,2.63
2018-07-13T17:59:25.277Z,6.60
2018-07-13T18:01:53.349Z,3.87
2018-07-13T18:04:20.970Z,4.57
2018-07-13T18:06:48.541Z,3.80
2018-07-13T18:09:16.165Z,2.80
2018-07-13T18:11:43.786Z,3.60
2018-07-13T18:14:11.342Z,3.00
2018-07-13T18:16:38.893Z,2.93
2018-07-13T18:19:06.507Z,3.20
2018-07-13T18:21:34.111Z,3.20
2018-07-13T18:24:01.728Z,2.93
2018-07-13T18:26:36.276Z,2.93
2018-07-13T18:29:03.936Z,2.87
2018-07-13T18:31:31.497Z,3.30
2018-07-13T18:33:59.083Z,2.93
2018-07-13T18:36:26.694Z,6.93
2018-07-13T18:38:54.310Z,14.50
2018-07-13T18:41:21.898Z,5.20
2018-07-13T18:43:49.521Z,4.63
2018-07-13T18:46:17.141Z,2.90
2018-07-13T18:48:47.481Z,2.83
2018-07-13T18:51:15.161Z,2.67
2018-07-13T18:53:42.758Z,2.83
2018-07-13T18:56:10.703Z,3.37
2018-07-13T18:58:38.695Z,2.77
2018-07-13T19:01:06.337Z,2.70
2018-07-13T19:03:33.909Z,2.90
2018-07-13T19:06:07.393Z,2.80
2018-07-13T19:08:34.968Z,2.57
2018-07-13T19:11:04.021Z,3.10
2018-07-13T19:13:31.619Z,2.77
2018-07-13T19:15:59.189Z,2.90
2018-07-13T19:18:26.833Z,2.57
2018-07-13T19:20:54.489Z,2.93
2018-07-13T19:23:22.025Z,2.77
2018-07-13T19:25:49.806Z,3.07
2018-07-13T19:28:17.382Z,2.87
2018-07-13T19:30:44.993Z,2.93
2018-07-13T19:33:12.546Z,18.70
2018-07-13T19:35:40.172Z,12.37
2018-07-13T19:38:08.469Z,8.13
2018-07-13T19:40:36.074Z,3.13
2018-07-13T19:43:03.788Z,3.00
2018-07-13T19:45:31.381Z,2.93
2018-07-13T19:47:58.953Z,16.03
2018-07-13T19:50:27.081Z,18.47
2018-07-13T19:52:54.620Z,11.93
2018-07-13T19:55:22.272Z,6.00
2018-07-13T19:57:49.943Z,3.20
2018-07-13T20:00:17.610Z,2.87
2018-07-13T20:02:45.241Z,2.80
2018-07-13T20:05:12.845Z,16.63
2018-07-13T20:07:40.794Z,5.27
2018-07-13T20:10:08.646Z,4.80
2018-07-13T20:12:36.244Z,2.97
2018-07-13T20:15:03.841Z,3.10
2018-07-13T20:17:32.289Z,2.80
2018-07-13T20:19:59.942Z,2.80
2018-07-13T20:22:27.509Z,3.03
2018-07-13T20:24:58.014Z,2.70
2018-07-13T20:27:25.637Z,2.80
2018-07-13T20:29:53.246Z,3.07
2018-07-13T20:32:20.818Z,3.00
2018-07-13T20:34:48.480Z,3.20
2018-07-13T20:37:16.066Z,3.10
2018-07-13T20:39:43.625Z,3.30
2018-07-13T20:42:11.898Z,3.10
2018-07-13T20:44:39.421Z,3.00
2018-07-13T20:47:07.052Z,3.10
2018-07-13T20:49:34.673Z,3.20
2018-07-13T20:52:02.253Z,2.80
2018-07-13T20:54:29.853Z,3.03
2018-07-13T20:56:57.442Z,3.10
2018-07-13T20:59:25.092Z,3.03
2018-07-13T21:01:52.688Z,3.00
2018-07-13T21:04:20.246Z,3.20
2018-07-13T21:06:47.841Z,3.60
2018-07-13T21:09:15.393Z,3.47
2018-07-13T21:11:43.053Z,3.80
2018-07-13T21:14:10.622Z,3.40
2018-07-13T21:16:38.258Z,3.37
2018-07-13T21:19:05.829Z,3.67
2018-07-13T21:21:33.401Z,4.30
2018-07-13T21:24:01.026Z,3.43
2018-07-13T21:26:28.638Z,3.43
2018-07-13T21:28:56.226Z,3.47
2018-07-13T21:31:23.841Z,4.43
2018-07-13T21:33:51.438Z,4.03
2018-07-13T21:36:19.053Z,4.67
2018-07-13T21:38:46.697Z,4.23
2018-07-13T21:41:14.311Z,4.60
2018-07-13T21:43:41.941Z,4.07
2018-07-13T21:46:09.525Z,4.30
2018-07-13T21:48:37.080Z,4.03
2018-07-13T21:51:04.750Z,4.27
2018-07-13T21:53:32.373Z,4.00
2018-07-13T21:55:59.977Z,3.80
2018-07-13T21:58:27.661Z,4.30
2018-07-13T22:00:55.277Z,4.00
2018-07-13T22:03:22.907Z,3.77
2018-07-13T22:05:50.473Z,4.30
2018-07-13T22:08:18.055Z,4.13
2018-07-13T22:10:45.701Z,4.07
2018-07-13T22:13:13.359Z,3.83
2018-07-13T22:15:40.938Z,4.27
2018-07-13T22:18:08.722Z,4.10
2018-07-13T22:20:36.354Z,3.63
2018-07-13T22:23:04.009Z,3.70
2018-07-13T22:25:31.685Z,3.53
2018-07-13T22:27:59.386Z,4.23
2018-07-13T22:30:27.029Z,4.17
2018-07-13T22:32:54.601Z,4.13
2018-07-13T22:35:22.189Z,4.07
2018-07-13T22:37:50.238Z,3.77
2018-07-13T22:40:17.841Z,4.30
2018-07-13T22:42:45.449Z,4.57
2018-07-13T22:45:13.041Z,4.17
2018-07-13T22:47:40.667Z,4.57
2018-07-13T22:50:08.307Z,4.73
2018-07-13T22:52:35.913Z,4.83
2018-07-13T22:55:03.572Z,4.60
2018-07-13T22:57:31.254Z,4.40
2018-07-13T22:59:58.939Z,4.33
2018-07-13T23:02:26.449Z,4.50
2018-07-13T23:04:54.058Z,4.73
2018-07-13T23:07:24.082Z,4.03
2018-07-13T23:09:51.705Z,4.37
2018-07-13T23:12:19.305Z,4.50
2018-07-13T23:14:46.986Z,4.50
2018-07-13T23:17:14.594Z,4.50
2018-07-13T23:19:42.192Z,4.47
2018-07-13T23:22:09.813Z,4.67
2018-07-13T23:24:37.506Z,4.67
2018-07-13T23:27:05.181Z,4.60
2018-07-13T23:29:32.714Z,4.40
2018-07-13T23:32:00.325Z,4.67
2018-07-13T23:34:27.917Z,4.30
2018-07-13T23:36:55.514Z,4.60
2018-07-13T23:39:23.085Z,4.90
2018-07-13T23:41:50.718Z,4.63
2018-07-13T23:44:18.296Z,5.00
2018-07-13T23:46:45.897Z,4.93
2018-07-13T23:49:13.474Z,4.60
2018-07-13T23:51:49.025Z,4.70
2018-07-13T23:54:16.655Z,4.43
2018-07-13T23:56:44.273Z,4.40
2018-07-13T23:59:11.877Z,4.67
